Time;durP1;ratioP1;P1;durP2;ratioP2;P2;SDS_P1;SDS_P2;PMS_P1;PMS_P2;Temp;Humidity;BMP_temperature;BMP_pressure;BME280_temperature;BME280_humidity;BME280_pressure;Samples;Min_cycle;Max_cycle;Signal;HPM_P1;HPM_P2
2022/05/05 00:01:49;;;;;;;7.22;1.80;;;22.10;59.50;;;;;;5102359;28;20377;-42
2022/05/05 00:04:15;;;;;;;3.58;2.30;;;22.10;59.30;;;;;;5093357;28;20032;-42
2022/05/05 00:06:41;;;;;;;2.75;2.42;;;22.10;59.00;;;;;;5103550;28;20032;-43
2022/05/05 00:09:07;;;;;;;5.30;2.85;;;22.10;59.10;;;;;;5103087;28;20020;-43
2022/05/05 00:14:24;;;;;;;3.85;2.35;;;22.10;59.20;;;;;;5101594;28;20057;-42
2022/05/05 00:16:58;;;;;;;3.88;2.58;;;22.10;59.10;;;;;;5106119;28;20031;-43
2022/05/05 00:19:25;;;;;;;3.47;2.70;;;22.20;59.20;;;;;;5104429;28;20031;-43
2022/05/05 00:21:52;;;;;;;3.67;2.75;;;22.20;59.20;;;;;;5107990;28;20093;-47
2022/05/05 00:24:18;;;;;;;2.83;2.50;;;22.20;59.20;;;;;;5103324;28;20040;-44
2022/05/05 00:26:45;;;;;;;3.25;2.00;;;22.20;59.10;;;;;;5111028;28;20028;-43
2022/05/05 00:29:11;;;;;;;2.40;2.03;;;22.20;58.80;;;;;;5098876;28;20027;-43
2022/05/05 00:31:37;;;;;;;3.50;2.65;;;22.30;58.70;;;;;;5099934;28;20044;-45
2022/05/05 00:34:04;;;;;;;3.15;2.65;;;22.20;58.60;;;;;;5101589;28;20074;-42
2022/05/05 00:36:30;;;;;;;2.80;2.60;;;22.20;58.50;;;;;;5102051;28;20461;-48
2022/05/05 00:38:56;;;;;;;3.42;2.55;;;22.30;58.70;;;;;;5098389;28;20031;-43
2022/05/05 00:41:22;;;;;;;3.80;2.60;;;22.30;58.80;;;;;;5096123;28;20035;-44
2022/05/05 00:43:48;;;;;;;3.58;2.90;;;22.30;58.80;;;;;;5096274;28;20076;-43
2022/05/05 00:46:15;;;;;;;5.15;2.92;;;22.30;58.90;;;;;;5099523;28;20060;-43
2022/05/05 00:48:43;;;;;;;3.50;2.88;;;22.30;58.90;;;;;;5105731;28;20036;-43
2022/05/05 00:51:09;;;;;;;3.30;2.90;;;22.30;58.90;;;;;;5102193;28;20104;-46
2022/05/05 00:53:35;;;;;;;4.05;3.08;;;22.40;59.00;;;;;;5108191;28;20691;-44
2022/05/05 00:56:07;;;;;;;4.90;2.90;;;22.40;59.00;;;;;;5102485;28;20035;-43
2022/05/05 00:58:33;;;;;;;3.33;3.03;;;22.40;59.00;;;;;;5109558;28;20024;-42
2022/05/05 01:01:06;;;;;;;3.35;3.03;;;22.40;59.10;;;;;;5082809;28;20028;-43
2022/05/05 01:03:33;;;;;;;4.68;3.28;;;22.40;59.20;;;;;;5098119;28;20037;-44
2022/05/05 01:06:00;;;;;;;3.47;3.13;;;22.50;59.30;;;;;;5105786;28;20048;-42
2022/05/05 01:08:26;;;;;;;4.65;3.17;;;22.50;59.30;;;;;;5099891;28;20083;-43
2022/05/05 01:10:52;;;;;;;3.50;3.20;;;22.50;59.30;;;;;;5100366;28;20038;-44
2022/05/05 01:13:18;;;;;;;3.45;3.00;;;22.50;59.30;;;;;;5105951;28;20035;-42
2022/05/05 01:15:45;;;;;;;4.22;3.35;;;22.50;59.30;;;;;;5117691;28;20051;-43
2022/05/05 01:18:11;;;;;;;3.80;3.33;;;22.60;59.40;;;;;;5112072;28;20028;-44
2022/05/05 01:20:46;;;;;;;4.13;3.53;;;22.60;59.40;;;;;;5098204;28;20031;-43
2022/05/05 01:23:13;;;;;;;4.57;3.15;;;22.60;59.40;;;;;;5096554;28;20028;-43
2022/05/05 01:28:24;;;;;;;4.32;3.33;;;22.60;59.40;;;;;;5095777;28;20059;-43
2022/05/05 01:30:50;;;;;;;3.67;3.38;;;22.70;59.40;;;;;;5111344;28;20036;-43
2022/05/05 01:33:21;;;;;;;4.40;3.73;;;22.70;59.40;;;;;;5072144;28;20939;-45
2022/05/05 01:35:52;;;;;;;4.70;3.47;;;22.70;59.40;;;;;;5098236;28;20033;-44
2022/05/05 01:38:19;;;;;;;3.78;3.40;;;22.70;59.50;;;;;;5106384;28;20058;-43
2022/05/05 01:40:48;;;;;;;6.18;3.75;;;22.70;59.50;;;;;;5089544;28;20084;-46
2022/05/05 01:43:16;;;;;;;4.57;3.90;;;22.80;59.50;;;;;;5096212;28;20055;-44
2022/05/05 01:45:41;;;;;;;;;;;22.80;59.50;;;;;;5105196;28;20026;-43
2022/05/05 01:48:08;;;;;;;4.28;3.65;;;22.80;59.50;;;;;;5094492;28;19943;-45
2022/05/05 01:50:34;;;;;;;4.20;3.80;;;22.80;59.50;;;;;;5099213;28;20119;-44
2022/05/05 01:53:00;;;;;;;4.50;3.90;;;22.80;59.50;;;;;;5098301;28;20059;-46
2022/05/05 01:55:27;;;;;;;7.43;3.72;;;22.90;59.60;;;;;;5087206;28;20093;-43
2022/05/05 01:57:54;;;;;;;4.75;4.20;;;22.90;59.50;;;;;;5101866;28;20036;-43
2022/05/05 02:00:20;;;;;;;4.47;4.07;;;22.90;59.50;;;;;;5101846;28;20030;-44
2022/05/05 02:02:46;;;;;;;3.97;3.60;;;22.90;59.40;;;;;;5106280;28;20061;-43
2022/05/05 02:05:13;;;;;;;3.58;3.10;;;23.00;59.30;;;;;;5105884;28;20048;-43
2022/05/05 02:07:39;;;;;;;5.35;3.63;;;23.00;59.20;;;;;;5107645;28;20533;-43
2022/05/05 02:10:06;;;;;;;7.97;3.42;;;23.00;59.10;;;;;;5098734;28;20099;-45
2022/05/05 02:12:33;;;;;;;5.53;3.20;;;23.00;59.00;;;;;;5092481;28;20040;-44
2022/05/05 02:14:59;;;;;;;4.00;2.97;;;23.00;58.90;;;;;;5095332;28;20039;-43
2022/05/05 02:17:27;;;;;;;7.70;3.33;;;23.00;58.80;;;;;;5093463;28;20082;-43
2022/05/05 02:19:53;;;;;;;3.30;3.00;;;23.00;58.80;;;;;;5107884;28;20058;-42
2022/05/05 02:22:19;;;;;;;3.95;3.10;;;23.10;58.80;;;;;;5113198;28;20533;-43
2022/05/05 02:24:45;;;;;;;3.55;3.00;;;23.10;58.70;;;;;;5104654;28;20053;-44
2022/05/05 02:27:11;;;;;;;4.07;3.20;;;23.10;58.70;;;;;;5103275;28;20054;-43
2022/05/05 02:29:38;;;;;;;6.28;3.05;;;23.10;58.60;;;;;;5105920;28;20028;-43
2022/05/05 02:32:04;;;;;;;4.95;2.72;;;23.20;58.60;;;;;;5101113;28;20086;-45
2022/05/05 02:34:30;;;;;;;3.83;3.10;;;23.20;58.60;;;;;;5101089;28;20035;-45
2022/05/05 02:39:41;;;;;;;4.50;2.92;;;23.20;58.50;;;;;;5086696;28;20095;-43
2022/05/05 02:42:07;;;;;;;3.53;3.15;;;23.20;58.50;;;;;;5099003;28;20144;-43
2022/05/05 02:44:33;;;;;;;4.53;2.80;;;23.30;58.40;;;;;;5102034;28;20036;-44
2022/05/05 02:47:00;;;;;;;5.13;2.92;;;23.30;58.40;;;;;;5091796;28;20837;-44
2022/05/05 02:49:29;;;;;;;8.02;3.10;;;23.30;58.50;;;;;;5098419;28;20028;-45
2022/05/05 02:51:55;;;;;;;12.20;3.50;;;23.30;58.40;;;;;;5092569;28;20040;-44
2022/05/05 02:57:06;;;;;;;8.15;2.90;;;23.30;58.40;;;;;;5083247;28;20043;-42
2022/05/05 02:59:32;;;;;;;4.77;2.33;;;23.40;58.10;;;;;;5089845;28;20073;-42
2022/05/05 03:01:58;;;;;;;7.97;2.50;;;23.30;57.70;;;;;;5093433;28;20310;-40
2022/05/05 03:04:24;;;;;;;5.07;2.00;;;23.40;57.60;;;;;;5092306;28;20022;-42
2022/05/05 03:06:51;;;;;;;5.22;2.20;;;23.40;57.50;;;;;;5097687;28;20040;-42
2022/05/05 03:09:18;;;;;;;8.13;1.98;;;23.40;57.30;;;;;;5083114;28;20055;-41
2022/05/05 03:11:44;;;;;;;3.10;2.28;;;23.40;57.20;;;;;;5092101;28;20044;-42
2022/05/05 03:14:10;;;;;;;4.35;2.10;;;23.40;57.20;;;;;;5090244;28;20069;-40
2022/05/05 03:16:36;;;;;;;3.47;1.92;;;23.40;57.20;;;;;;5090335;28;20037;-42
2022/05/05 03:19:03;;;;;;;3.70;2.40;;;23.40;57.10;;;;;;5092643;28;20051;-42
2022/05/05 03:21:29;;;;;;;3.85;2.10;;;23.40;57.00;;;;;;5095467;28;20037;-44
2022/05/05 03:23:55;;;;;;;3.00;2.30;;;23.50;57.00;;;;;;5089469;28;20063;-41
2022/05/05 03:26:21;;;;;;;2.17;1.88;;;23.50;57.00;;;;;;5095593;28;20056;-41
2022/05/05 03:28:47;;;;;;;3.47;2.10;;;23.50;56.90;;;;;;5096012;28;20032;-43
2022/05/05 03:31:13;;;;;;;3.67;2.30;;;23.50;57.00;;;;;;5096356;28;20047;-42
2022/05/05 03:33:40;;;;;;;2.83;2.17;;;23.50;56.90;;;;;;5093921;28;20028;-41
2022/05/05 03:36:06;;;;;;;5.10;2.47;;;23.50;56.90;;;;;;5097713;28;20024;-41
2022/05/05 03:38:33;;;;;;;214.38;66.63;;;23.50;57.40;;;;;;5098614;28;20031;-43
2022/05/05 03:40:59;;;;;;;162.65;54.33;;;23.50;57.50;;;;;;5098493;28;20057;-42
2022/05/05 03:43:25;;;;;;;129.52;41.78;;;23.50;57.80;;;;;;5102437;28;20062;-42
2022/05/05 03:45:51;;;;;;;93.57;31.75;;;23.50;57.20;;;;;;5096929;28;20562;-43
2022/05/05 03:48:17;;;;;;;79.20;27.92;;;23.50;56.90;;;;;;5102106;28;20028;-40
2022/05/05 03:50:43;;;;;;;80.10;27.08;;;23.50;56.30;;;;;;5098041;28;20060;-41
2022/05/05 03:53:09;;;;;;;74.28;26.08;;;23.50;56.20;;;;;;5097755;28;20032;-42
2022/05/05 03:55:35;;;;;;;68.70;25.45;;;23.50;56.30;;;;;;5097845;28;20024;-41
2022/05/05 03:58:02;;;;;;;71.82;23.48;;;23.50;56.40;;;;;;5102068;28;20033;-42
2022/05/05 04:00:28;;;;;;;63.95;24.50;;;23.50;56.50;;;;;;5100696;28;20039;-41
2022/05/05 04:05:39;;;;;;;61.40;22.67;;;23.50;56.60;;;;;;5092196;28;20071;-42
2022/05/05 04:08:05;;;;;;;58.33;20.85;;;23.50;56.70;;;;;;5094970;28;20588;-43
2022/05/05 04:10:31;;;;;;;56.77;20.17;;;23.50;56.70;;;;;;5095823;28;20841;-41
2022/05/05 04:12:58;;;;;;;52.27;19.03;;;23.50;56.70;;;;;;5107269;28;20079;-43
2022/05/05 04:15:24;;;;;;;57.00;20.15;;;23.50;56.80;;;;;;5105905;28;20032;-42
2022/05/05 04:17:50;;;;;;;50.30;18.87;;;23.50;56.90;;;;;;5100515;28;20024;-41
2022/05/05 04:20:17;;;;;;;51.08;18.73;;;23.50;56.90;;;;;;5103008;28;20271;-42
2022/05/05 04:22:43;;;;;;;51.05;18.70;;;23.50;56.90;;;;;;5106357;28;20043;-41
2022/05/05 04:25:12;;;;;;;42.40;17.75;;;23.50;56.90;;;;;;5104201;28;20040;-42
2022/05/05 04:27:39;;;;;;;48.45;17.48;;;23.50;56.90;;;;;;5110052;28;20063;-44
2022/05/05 04:30:06;;;;;;;46.13;17.73;;;23.50;56.90;;;;;;5115518;28;20020;-42
2022/05/05 04:32:33;;;;;;;41.58;16.70;;;23.50;56.90;;;;;;5091180;28;20747;-42
2022/05/05 04:34:59;;;;;;;39.72;15.93;;;23.50;57.00;;;;;;5108326;28;20110;-41
2022/05/05 04:37:25;;;;;;;41.50;16.55;;;23.50;57.00;;;;;;5104626;28;20024;-41
2022/05/05 04:39:51;;;;;;;42.28;15.95;;;23.50;57.00;;;;;;5107603;28;20086;-42
2022/05/05 04:42:17;;;;;;;39.15;15.88;;;23.50;57.00;;;;;;5116963;28;20028;-41
2022/05/05 04:44:43;;;;;;;41.55;14.75;;;23.50;57.00;;;;;;5103289;28;20052;-42
2022/05/05 04:47:10;;;;;;;37.33;15.40;;;23.50;57.00;;;;;;5108709;28;20035;-41
2022/05/05 04:49:37;;;;;;;35.03;14.40;;;23.50;57.00;;;;;;5111640;28;20087;-41
2022/05/05 04:52:04;;;;;;;30.58;14.07;;;23.50;57.00;;;;;;5110114;28;20089;-42
2022/05/05 04:54:30;;;;;;;35.45;13.20;;;23.50;57.00;;;;;;5108582;28;20031;-42
2022/05/05 04:56:56;;;;;;;32.97;13.85;;;23.50;57.00;;;;;;5106243;28;20039;-41
2022/05/05 04:59:22;;;;;;;32.03;13.02;;;23.50;57.00;;;;;;5110264;28;20051;-41
2022/05/05 05:01:49;;;;;;;32.67;12.88;;;23.40;57.00;;;;;;5108830;28;20039;-42
2022/05/05 05:04:15;;;;;;;30.85;13.00;;;23.40;57.00;;;;;;5104235;28;20037;-41
2022/05/05 05:06:41;;;;;;;26.33;11.07;;;23.40;57.00;;;;;;5109953;28;20031;-41
2022/05/05 05:09:07;;;;;;;29.40;11.85;;;23.40;57.00;;;;;;5106690;28;20745;-41
2022/05/05 05:11:34;;;;;;;27.25;11.98;;;23.40;57.00;;;;;;5092198;28;20036;-41
2022/05/05 05:14:00;;;;;;;20.48;10.70;;;23.40;57.00;;;;;;5107504;28;20099;-41
2022/05/05 05:16:26;;;;;;;24.13;11.07;;;23.40;57.00;;;;;;5091016;28;20023;-41
2022/05/05 05:18:53;;;;;;;22.23;10.50;;;23.40;57.00;;;;;;5100046;28;20033;-43
2022/05/05 05:21:23;;;;;;;28.13;11.25;;;23.40;57.00;;;;;;5108257;28;20024;-40
2022/05/05 05:23:50;;;;;;;24.80;11.18;;;23.40;57.00;;;;;;5107989;28;20030;-42
2022/05/05 05:26:16;;;;;;;21.92;9.65;;;23.40;57.00;;;;;;5104143;28;20035;-41
2022/05/05 05:28:42;;;;;;;19.38;9.27;;;23.40;57.00;;;;;;5105879;28;20036;-43
2022/05/05 05:31:08;;;;;;;22.10;9.95;;;23.30;57.00;;;;;;5109286;28;20016;-41
2022/05/05 05:33:35;;;;;;;19.60;9.50;;;23.40;57.00;;;;;;5104377;28;20028;-41
2022/05/05 05:36:01;;;;;;;19.23;9.67;;;23.30;57.00;;;;;;5110267;28;20032;-41
2022/05/05 05:38:27;;;;;;;20.13;9.05;;;23.30;57.00;;;;;;5105622;28;20447;-41
2022/05/05 05:40:54;;;;;;;20.90;9.63;;;23.30;57.00;;;;;;5107278;28;20019;-45
2022/05/05 05:43:21;;;;;;;19.60;9.77;;;23.30;57.00;;;;;;5109031;28;20032;-41
2022/05/05 05:45:47;;;;;;;19.85;9.23;;;23.30;57.00;;;;;;5110107;28;20020;-42
2022/05/05 05:48:13;;;;;;;21.50;8.55;;;23.30;57.00;;;;;;5107915;28;20023;-42
2022/05/05 05:50:39;;;;;;;17.58;8.52;;;23.30;57.10;;;;;;5110070;28;20036;-42
2022/05/05 05:53:05;;;;;;;18.52;8.65;;;23.30;57.10;;;;;;5114066;28;20112;-43
2022/05/05 05:55:32;;;;;;;15.57;7.97;;;23.30;57.00;;;;;;5107921;28;20080;-42
2022/05/05 05:57:58;;;;;;;15.85;8.07;;;23.30;57.00;;;;;;5111895;28;20032;-42
2022/05/05 06:00:24;;;;;;;18.83;8.82;;;23.20;57.00;;;;;;5106793;28;20031;-42
2022/05/05 06:05:35;;;;;;;15.23;7.82;;;23.20;57.00;;;;;;5102478;28;20047;-42
2022/05/05 06:08:02;;;;;;;14.50;7.13;;;23.20;57.00;;;;;;5101488;28;20117;-42
2022/05/05 06:10:28;;;;;;;15.95;7.18;;;23.20;57.10;;;;;;5110296;28;20075;-43
2022/05/05 06:12:55;;;;;;;13.07;7.43;;;23.20;57.10;;;;;;5103652;28;20028;-41
2022/05/05 06:15:22;;;;;;;18.67;7.30;;;23.20;57.10;;;;;;5102921;28;20735;-42
2022/05/05 06:17:49;;;;;;;12.38;6.90;;;23.20;57.10;;;;;;5104481;28;20054;-42
2022/05/05 06:20:15;;;;;;;13.32;7.10;;;23.20;57.10;;;;;;5106949;28;20626;-41
2022/05/05 06:22:42;;;;;;;13.07;7.15;;;23.20;57.20;;;;;;5108225;28;20036;-43
2022/05/05 06:25:11;;;;;;;15.38;6.95;;;23.20;57.20;;;;;;5112718;28;20032;-42
2022/05/05 06:27:38;;;;;;;13.20;6.78;;;23.20;57.20;;;;;;5107660;28;20028;-43
2022/05/05 06:30:05;;;;;;;12.25;6.22;;;23.10;57.20;;;;;;5104879;28;20050;-43
2022/05/05 06:32:31;;;;;;;14.18;6.55;;;23.10;57.30;;;;;;5102774;28;20047;-42
2022/05/05 06:34:58;;;;;;;11.40;6.05;;;23.10;57.30;;;;;;5111695;28;20047;-42
2022/05/05 06:37:24;;;;;;;12.85;6.07;;;23.10;57.30;;;;;;5107812;28;20024;-45
2022/05/05 06:39:51;;;;;;;11.40;5.77;;;23.10;57.40;;;;;;5107368;28;20028;-42
2022/05/05 06:42:17;;;;;;;10.18;5.65;;;23.10;57.50;;;;;;5109308;28;20313;-41
2022/05/05 06:44:43;;;;;;;11.20;6.20;;;23.10;57.60;;;;;;5106493;28;20129;-42
2022/05/05 06:47:10;;;;;;;11.18;5.90;;;23.10;57.60;;;;;;5103286;28;20123;-41
2022/05/05 06:49:36;;;;;;;10.82;6.28;;;23.10;57.60;;;;;;5104537;28;20050;-40
2022/05/05 06:52:03;;;;;;;11.95;5.78;;;23.10;57.60;;;;;;5108790;28;20127;-41
2022/05/05 06:54:29;;;;;;;10.55;5.22;;;23.10;57.70;;;;;;5106184;28;20034;-42
2022/05/05 06:56:55;;;;;;;9.45;5.25;;;23.10;57.70;;;;;;5103843;28;20051;-41
2022/05/05 06:59:22;;;;;;;8.80;5.13;;;23.00;57.70;;;;;;5109850;28;20034;-41
2022/05/05 07:02:01;;;;;;;9.32;5.13;;;23.00;57.70;;;;;;5098429;28;20052;-41
2022/05/05 07:07:13;;;;;;;9.57;5.22;;;23.00;57.70;;;;;;5104400;28;20031;-41
2022/05/05 07:12:25;;;;;;;9.05;5.15;;;23.00;57.70;;;;;;5103805;28;20120;-43
2022/05/05 07:14:51;;;;;;;10.88;5.60;;;23.00;57.70;;;;;;5105659;28;20039;-42
2022/05/05 07:17:17;;;;;;;7.65;4.57;;;23.00;57.70;;;;;;5106478;28;20033;-42
2022/05/05 07:19:43;;;;;;;9.23;5.35;;;23.00;57.70;;;;;;5107625;28;20052;-42
2022/05/05 07:22:09;;;;;;;7.65;4.82;;;22.90;57.70;;;;;;5106328;28;20050;-42
2022/05/05 07:24:35;;;;;;;9.45;4.75;;;23.00;57.80;;;;;;5099415;28;20109;-42
2022/05/05 07:27:02;;;;;;;7.28;4.40;;;22.90;57.70;;;;;;5100606;28;20035;-41
2022/05/05 07:29:29;;;;;;;7.95;4.40;;;22.90;57.70;;;;;;5111401;28;20059;-42
2022/05/05 07:31:56;;;;;;;9.40;4.70;;;22.90;57.80;;;;;;5105554;28;20036;-41
2022/05/05 07:34:23;;;;;;;8.25;4.90;;;22.90;57.80;;;;;;5102691;28;20028;-42
2022/05/05 07:36:49;;;;;;;7.03;4.13;;;22.90;57.80;;;;;;5102676;28;20028;-42
2022/05/05 07:39:15;;;;;;;9.63;4.80;;;22.90;57.80;;;;;;5102100;28;20042;-40
2022/05/05 07:41:41;;;;;;;8.05;4.60;;;22.90;57.80;;;;;;5108117;28;20028;-41
2022/05/05 07:44:08;;;;;;;7.18;4.53;;;22.90;57.80;;;;;;5103971;28;20033;-41
2022/05/05 07:46:34;;;;;;;6.07;3.88;;;22.90;57.80;;;;;;5088365;28;20027;-41
2022/05/05 07:49:01;;;;;;;8.70;5.00;;;22.80;57.80;;;;;;5105499;28;20016;-42
2022/05/05 07:51:28;;;;;;;8.02;4.40;;;22.80;57.80;;;;;;5104358;28;20296;-41
2022/05/05 07:56:41;;;;;;;7.53;4.50;;;22.80;57.80;;;;;;5104245;28;20058;-41
2022/05/05 07:59:07;;;;;;;6.70;4.00;;;22.80;57.80;;;;;;5105464;28;20032;-41
2022/05/05 08:01:33;;;;;;;6.03;4.15;;;22.80;57.80;;;;;;5113376;28;20404;-41
2022/05/05 08:03:59;;;;;;;5.60;3.67;;;22.80;57.80;;;;;;5108830;28;20116;-41
2022/05/05 08:06:26;;;;;;;5.43;3.58;;;22.80;57.80;;;;;;5109136;28;20079;-41
2022/05/05 08:08:52;;;;;;;5.18;3.90;;;22.80;57.80;;;;;;5109197;28;20067;-41
2022/05/05 08:11:18;;;;;;;4.80;3.70;;;22.80;57.90;;;;;;5108227;28;20039;-42
2022/05/05 08:13:44;;;;;;;5.47;3.63;;;22.70;57.80;;;;;;5106916;28;20017;-41
2022/05/05 08:16:10;;;;;;;5.95;4.03;;;22.70;57.90;;;;;;5108506;28;20028;-43
2022/05/05 08:18:38;;;;;;;5.90;4.10;;;22.70;57.90;;;;;;5107826;28;20035;-43
2022/05/05 08:21:05;;;;;;;4.68;3.50;;;22.70;57.90;;;;;;5104833;28;20031;-42
2022/05/05 08:23:32;;;;;;;5.60;3.55;;;22.70;57.90;;;;;;5113913;28;20582;-41
2022/05/05 08:28:43;;;;;;;5.70;3.63;;;22.70;57.90;;;;;;5111375;28;20050;-41
2022/05/05 08:31:12;;;;;;;5.25;3.65;;;22.70;58.00;;;;;;5108805;28;20036;-44
2022/05/05 08:33:38;;;;;;;4.50;3.25;;;22.70;58.00;;;;;;5103671;28;20043;-42
2022/05/05 08:36:05;;;;;;;5.65;3.45;;;22.70;58.00;;;;;;5106455;28;20028;-41
2022/05/05 08:38:32;;;;;;;4.57;3.40;;;22.70;58.00;;;;;;5107716;28;20024;-41
2022/05/05 08:40:58;;;;;;;5.63;3.53;;;22.60;58.00;;;;;;5108878;28;20024;-44
2022/05/05 08:43:24;;;;;;;4.47;3.60;;;22.70;58.00;;;;;;5111901;28;20475;-41
2022/05/05 08:45:53;;;;;;;5.38;3.70;;;22.60;58.00;;;;;;5110861;28;20790;-41
2022/05/05 08:48:20;;;;;;;4.60;3.13;;;22.60;58.10;;;;;;5116601;28;20042;-41
2022/05/05 08:50:46;;;;;;;6.60;3.70;;;22.60;58.10;;;;;;5108830;28;20035;-41
2022/05/05 08:53:14;;;;;;;6.47;3.70;;;22.60;58.10;;;;;;5086470;28;20029;-41
2022/05/05 08:55:41;;;;;;;4.80;3.08;;;22.60;58.00;;;;;;5107059;28;20501;-42
2022/05/05 08:58:07;;;;;;;4.85;3.38;;;22.60;58.10;;;;;;5104484;28;20043;-42
2022/05/05 09:00:33;;;;;;;4.10;3.22;;;22.60;58.10;;;;;;5106967;28;20039;-41
2022/05/05 09:03:00;;;;;;;4.90;3.58;;;22.60;58.10;;;;;;5109309;28;20024;-41
2022/05/05 09:05:44;;;;;;;4.65;3.30;;;22.60;58.10;;;;;;5093544;28;20051;-43
2022/05/05 09:08:14;;;;;;;3.72;3.03;;;22.50;58.10;;;;;;5078891;28;20036;-42
2022/05/05 09:10:44;;;;;;;5.00;3.20;;;22.50;58.00;;;;;;5066816;28;20036;-43
2022/05/05 09:13:10;;;;;;;4.50;3.20;;;22.50;58.10;;;;;;5089414;28;20050;-42
2022/05/05 09:15:37;;;;;;;5.13;3.35;;;22.50;58.10;;;;;;5080612;28;20055;-42
2022/05/05 09:18:22;;;;;;;4.97;3.58;;;22.50;58.00;;;;;;5085825;28;20811;-41
2022/05/05 09:20:50;;;;;;;4.60;2.78;;;22.50;58.10;;;;;;5082156;28;20033;-41
2022/05/05 09:24:34;;;;;;;4.32;3.13;;;22.50;58.10;;;;;;5089103;28;20023;-42
2022/05/05 09:26:27;;;;;;;4.43;3.17;;;22.50;58.20;;;;;;5083326;28;20039;-42
2022/05/05 09:28:53;;;;;;;;;;;22.50;58.20;;;;;;5064412;28;20390;-42
2022/05/05 09:31:21;;;;;;;3.40;2.78;;;22.40;58.10;;;;;;5083833;28;20828;-40
2022/05/05 09:33:47;;;;;;;4.07;2.90;;;22.40;58.20;;;;;;5085013;28;20063;-41
2022/05/05 09:36:15;;;;;;;3.78;3.15;;;22.40;58.20;;;;;;5083785;28;20605;-41
2022/05/05 09:38:56;;;;;;;;;;;22.40;58.20;;;;;;5079696;28;20032;-42
2022/05/05 09:41:24;;;;;;;3.75;2.92;;;22.40;58.20;;;;;;5084616;28;19976;-42
2022/05/05 09:43:50;;;;;;;4.13;3.25;;;22.40;58.20;;;;;;5084373;28;20134;-42
2022/05/05 09:46:28;;;;;;;3.60;2.80;;;22.40;58.20;;;;;;5072637;28;20027;-42
2022/05/05 09:49:17;;;;;;;5.47;3.10;;;22.40;58.20;;;;;;5082417;28;20036;-42
2022/05/05 09:57:42;;;;;;;5.22;3.13;;;22.30;58.20;;;;;;5081826;28;20116;-42
2022/05/05 10:05:51;;;;;;;3.55;2.90;;;22.30;58.30;;;;;;5083703;28;20135;-42
2022/05/05 10:08:46;;;;;;;4.88;3.10;;;22.30;58.30;;;;;;5085624;28;20032;-42
2022/05/05 10:11:16;;;;;;;3.20;2.80;;;22.30;58.30;;;;;;5073165;28;20052;-41
2022/05/05 10:13:43;;;;;;;3.47;2.75;;;22.30;58.40;;;;;;5084556;28;20059;-41
2022/05/05 10:16:09;;;;;;;3.75;2.92;;;22.30;58.40;;;;;;5083382;28;20032;-41
2022/05/05 10:18:39;;;;;;;3.38;2.88;;;22.20;58.40;;;;;;5089291;28;20048;-43
2022/05/05 10:21:09;;;;;;;4.95;3.10;;;22.20;58.40;;;;;;5090697;28;20029;-41
2022/05/05 10:23:57;;;;;;;3.88;2.85;;;22.30;58.50;;;;;;5082459;28;20036;-42
2022/05/05 10:26:24;;;;;;;4.22;3.15;;;22.20;58.50;;;;;;5072360;28;20037;-42
2022/05/05 10:28:51;;;;;;;5.45;3.20;;;22.20;58.50;;;;;;5083738;28;20123;-42
2022/05/05 10:31:37;;;;;;;4.10;3.00;;;22.20;58.50;;;;;;5080238;28;20040;-42
2022/05/05 10:34:07;;;;;;;3.65;2.70;;;22.20;58.40;;;;;;5085529;28;20047;-43
2022/05/05 10:36:35;;;;;;;3.83;2.72;;;22.20;58.40;;;;;;5084154;28;20025;-41
2022/05/05 10:39:23;;;;;;;9.57;3.40;;;22.30;58.50;;;;;;5070019;28;20028;-44
2022/05/05 10:41:51;;;;;;;4.15;3.30;;;22.30;58.50;;;;;;5085255;28;20083;-43
2022/05/05 10:44:20;;;;;;;3.67;3.10;;;22.30;58.20;;;;;;5085879;28;20038;-40
2022/05/05 10:47:02;;;;;;;4.65;3.50;;;22.20;58.00;;;;;;5095680;28;20029;-44
2022/05/05 10:49:34;;;;;;;7.13;3.78;;;22.30;57.90;;;;;;5084399;28;20096;-43
2022/05/05 10:52:12;;;;;;;5.78;3.50;;;22.30;57.90;;;;;;5081421;28;20094;-47
2022/05/05 10:54:42;;;;;;;5.15;3.35;;;22.30;57.90;;;;;;5092712;28;20032;-44
2022/05/05 10:57:26;;;;;;;11.48;3.67;;;22.30;57.80;;;;;;5079677;28;20036;-54
2022/05/05 11:00:12;;;;;;;5.40;3.72;;;22.20;58.20;;;;;;5078401;28;20043;-53
2022/05/05 11:03:01;;;;;;;6.70;3.63;;;22.30;58.20;;;;;;5093546;28;20032;-53
2022/05/05 11:05:31;;;;;;;7.22;3.67;;;22.20;58.00;;;;;;5093137;28;20078;-51
2022/05/05 11:08:07;;;;;;;9.55;3.65;;;22.20;58.00;;;;;;5088188;28;20035;-51
2022/05/05 11:10:45;;;;;;;7.03;3.63;;;22.20;57.90;;;;;;5083791;28;20027;-54
2022/05/05 11:13:37;;;;;;;6.90;3.90;;;22.20;57.90;;;;;;5085842;28;20039;-50
2022/05/05 11:22:24;;;;;;;8.98;3.60;;;22.20;57.70;;;;;;5072323;28;20062;-52
2022/05/05 11:24:52;;;;;;;5.00;3.28;;;22.20;57.70;;;;;;5085139;28;20025;-54
2022/05/05 11:27:22;;;;;;;6.85;3.50;;;22.20;57.70;;;;;;5081456;28;20049;-52
2022/05/05 11:29:52;;;;;;;7.10;3.50;;;22.20;57.60;;;;;;5086820;28;20051;-53
2022/05/05 11:32:19;;;;;;;6.57;3.38;;;22.10;57.50;;;;;;5065177;28;20062;-51
2022/05/05 11:34:46;;;;;;;4.43;3.63;;;22.20;57.50;;;;;;5080173;28;20025;-53
2022/05/05 11:37:12;;;;;;;4.18;3.58;;;22.20;57.40;;;;;;5081459;28;20036;-49
2022/05/05 11:39:38;;;;;;;4.97;3.47;;;22.10;57.40;;;;;;5080946;28;20020;-53
2022/05/05 11:42:10;;;;;;;5.35;4.10;;;22.10;57.50;;;;;;5080704;28;20033;-52
2022/05/05 11:44:39;;;;;;;4.25;3.55;;;22.10;57.40;;;;;;5081751;28;20029;-49
2022/05/05 11:47:16;;;;;;;8.23;3.90;;;22.10;57.40;;;;;;5079417;28;20598;-51
2022/05/05 11:49:43;;;;;;;4.43;3.90;;;22.10;57.30;;;;;;5080511;28;20029;-50
2022/05/05 11:52:14;;;;;;;4.63;3.45;;;22.10;57.30;;;;;;5080082;28;20075;-50
2022/05/05 11:54:40;;;;;;;4.18;3.67;;;22.10;57.40;;;;;;5081917;28;20047;-51
2022/05/05 11:57:06;;;;;;;6.65;3.40;;;22.10;57.20;;;;;;5078248;28;20037;-50
2022/05/05 12:02:19;;;;;;;6.00;3.47;;;22.00;57.40;;;;;;5082104;28;20044;-52
2022/05/05 12:04:52;;;;;;;4.40;3.45;;;22.00;57.10;;;;;;5080564;28;20052;-50
2022/05/05 12:07:22;;;;;;;4.05;3.53;;;22.00;57.10;;;;;;5079224;28;20159;-52
2022/05/05 12:09:56;;;;;;;3.33;3.00;;;22.00;57.40;;;;;;5082438;28;20030;-52
2022/05/05 12:12:23;;;;;;;5.70;3.40;;;22.00;57.30;;;;;;5082996;28;20036;-53
2022/05/05 12:14:51;;;;;;;;;;;22.00;57.10;;;;;;5090041;28;20029;-53
2022/05/05 12:17:20;;;;;;;4.57;3.60;;;22.00;57.10;;;;;;5083783;28;19931;-51
2022/05/05 12:19:50;;;;;;;4.70;3.30;;;22.00;57.10;;;;;;5087180;28;20035;-50
2022/05/05 12:22:37;;;;;;;4.43;3.45;;;22.00;57.30;;;;;;5080012;28;20036;-53
2022/05/05 12:25:14;;;;;;;4.38;3.20;;;22.00;57.10;;;;;;5091110;28;20032;-48
2022/05/05 12:27:45;;;;;;;5.00;3.30;;;21.90;57.00;;;;;;5084539;28;20381;-52
2022/05/05 12:30:14;;;;;;;4.10;3.40;;;21.90;57.00;;;;;;5080672;28;20032;-50
2022/05/05 12:32:53;;;;;;;4.10;3.33;;;22.00;57.00;;;;;;5086173;28;20040;-50
2022/05/05 12:35:28;;;;;;;3.90;3.30;;;21.90;57.00;;;;;;5062776;28;20059;-47
2022/05/05 12:38:01;;;;;;;6.38;3.58;;;21.90;57.00;;;;;;5088579;28;20042;-49
2022/05/05 12:40:28;;;;;;;4.03;3.63;;;21.90;57.00;;;;;;5082131;28;20028;-50
2022/05/05 12:43:05;;;;;;;4.55;3.20;;;21.90;57.00;;;;;;5085522;28;20028;-48
2022/05/05 12:45:32;;;;;;;4.68;3.25;;;21.90;56.90;;;;;;5085495;28;20032;-52
2022/05/05 12:48:00;;;;;;;4.68;2.97;;;21.90;56.90;;;;;;5091207;28;20119;-47
2022/05/05 12:50:35;;;;;;;3.30;3.00;;;21.90;57.00;;;;;;5098423;28;20024;-51
2022/05/05 13:01:34;;;;;;;3.78;3.25;;;21.90;57.00;;;;;;5090966;28;20098;-47
2022/05/05 13:04:06;;;;;;;3.40;3.08;;;21.90;57.10;;;;;;5086935;28;20104;-46
2022/05/05 13:06:33;;;;;;;3.63;3.10;;;21.80;57.10;;;;;;5100220;28;20437;-48
2022/05/05 13:08:59;;;;;;;3.78;3.10;;;21.80;57.10;;;;;;5103551;28;20020;-49
2022/05/05 13:11:25;;;;;;;3.30;3.00;;;21.90;57.20;;;;;;5103820;28;20136;-47
2022/05/05 13:13:52;;;;;;;5.38;3.15;;;21.90;57.20;;;;;;5103545;28;20090;-48
2022/05/05 13:16:18;;;;;;;4.20;3.15;;;21.90;57.20;;;;;;5103737;28;20063;-49
2022/05/05 13:18:44;;;;;;;3.42;2.92;;;21.90;57.20;;;;;;5103463;28;20036;-47
2022/05/05 13:21:10;;;;;;;4.53;3.17;;;21.90;57.20;;;;;;5102754;28;20104;-46
2022/05/05 13:23:37;;;;;;;4.38;3.42;;;21.80;57.20;;;;;;5102898;28;20027;-49
2022/05/05 13:26:03;;;;;;;4.28;2.90;;;21.90;57.30;;;;;;5103423;28;20028;-47
2022/05/05 13:28:31;;;;;;;4.80;2.97;;;21.90;57.30;;;;;;5102839;28;20084;-49
2022/05/05 13:30:57;;;;;;;4.25;3.22;;;21.90;57.30;;;;;;5102739;28;20036;-47
2022/05/05 13:33:23;;;;;;;3.30;2.87;;;21.80;57.20;;;;;;5102830;28;20020;-47
2022/05/05 13:35:50;;;;;;;3.55;3.25;;;21.90;57.30;;;;;;5102394;28;20052;-48
2022/05/05 13:38:17;;;;;;;3.33;3.03;;;21.80;57.30;;;;;;5103049;28;20066;-47
2022/05/05 13:40:43;;;;;;;;;;;21.90;57.50;;;;;;5084966;28;20467;-45
2022/05/05 13:43:09;;;;;;;4.40;3.33;;;21.80;57.50;;;;;;5102772;28;19904;-45
2022/05/05 13:45:35;;;;;;;3.90;3.50;;;21.80;57.60;;;;;;5103001;28;20020;-47